sensor_id;sensor_type;location;lat;lon;timestamp;pressure;altitude;pressure_sealevel;temperature;humidity
35307;BME280;21420;52.196;21.416;2023-04-15T00:00:57;99503.10;;;10.02;59.08
35307;BME280;21420;52.196;21.416;2023-04-15T00:03:25;99505.74;;;10.02;58.90
35307;BME280;21420;52.196;21.416;2023-04-15T00:05:52;99497.74;;;10.01;58.91
35307;BME280;21420;52.196;21.416;2023-04-15T00:08:19;99500.55;;;10.00;58.98
35307;BME280;21420;52.196;21.416;2023-04-15T00:10:46;99499.28;;;10.00;58.98
35307;BME280;21420;52.196;21.416;2023-04-15T00:13:12;99495.91;;;9.99;59.07
35307;BME280;21420;52.196;21.416;2023-04-15T00:15:39;99499.98;;;10.00;59.15
35307;BME280;21420;52.196;21.416;2023-04-15T00:18:06;99490.46;;;10.00;59.14
35307;BME280;21420;52.196;21.416;2023-04-15T00:20:34;99489.24;;;10.01;59.20
35307;BME280;21420;52.196;21.416;2023-04-15T00:23:01;99492.02;;;10.03;59.10
35307;BME280;21420;52.196;21.416;2023-04-15T00:25:29;99489.20;;;10.03;59.15
35307;BME280;21420;52.196;21.416;2023-04-15T00:27:56;99486.65;;;10.04;59.19
35307;BME280;21420;52.196;21.416;2023-04-15T00:30:22;99485.83;;;10.03;59.16
35307;BME280;21420;52.196;21.416;2023-04-15T00:32:49;99488.91;;;10.00;59.20
35307;BME280;21420;52.196;21.416;2023-04-15T00:35:17;99486.06;;;9.99;59.14
35307;BME280;21420;52.196;21.416;2023-04-15T00:37:43;99491.13;;;9.98;59.30
35307;BME280;21420;52.196;21.416;2023-04-15T00:40:12;99482.03;;;9.97;59.39
35307;BME280;21420;52.196;21.416;2023-04-15T00:42:39;99483.35;;;9.97;59.40
35307;BME280;21420;52.196;21.416;2023-04-15T00:45:06;99486.18;;;9.97;59.44
35307;BME280;21420;52.196;21.416;2023-04-15T00:47:35;99479.71;;;9.97;59.47
35307;BME280;21420;52.196;21.416;2023-04-15T00:50:03;99477.52;;;9.97;59.38
35307;BME280;21420;52.196;21.416;2023-04-15T00:52:30;99477.55;;;9.99;59.48
35307;BME280;21420;52.196;21.416;2023-04-15T00:54:58;99478.28;;;10.00;59.41
35307;BME280;21420;52.196;21.416;2023-04-15T00:57:25;99475.30;;;9.99;59.34
35307;BME280;21420;52.196;21.416;2023-04-15T00:59:54;99481.61;;;9.99;59.42
35307;BME280;21420;52.196;21.416;2023-04-15T01:02:22;99473.28;;;9.97;59.63
35307;BME280;21420;52.196;21.416;2023-04-15T01:04:49;99479.06;;;9.97;59.57
35307;BME280;21420;52.196;21.416;2023-04-15T01:07:16;99483.09;;;9.96;59.52
35307;BME280;21420;52.196;21.416;2023-04-15T01:09:43;99481.66;;;9.95;59.63
35307;BME280;21420;52.196;21.416;2023-04-15T01:12:11;99476.15;;;9.93;59.59
35307;BME280;21420;52.196;21.416;2023-04-15T01:14:39;99475.11;;;9.89;59.53
35307;BME280;21420;52.196;21.416;2023-04-15T01:17:07;99475.52;;;9.87;59.55
35307;BME280;21420;52.196;21.416;2023-04-15T01:19:35;99478.33;;;9.83;59.56
35307;BME280;21420;52.196;21.416;2023-04-15T01:22:03;99478.89;;;9.80;59.74
35307;BME280;21420;52.196;21.416;2023-04-15T01:24:31;99478.27;;;9.78;59.67
35307;BME280;21420;52.196;21.416;2023-04-15T01:26:58;99477.78;;;9.74;59.73
35307;BME280;21420;52.196;21.416;2023-04-15T01:29:25;99479.41;;;9.71;59.85
35307;BME280;21420;52.196;21.416;2023-04-15T01:31:55;99478.70;;;9.67;59.91
35307;BME280;21420;52.196;21.416;2023-04-15T01:34:24;99477.64;;;9.65;60.01
35307;BME280;21420;52.196;21.416;2023-04-15T01:36:52;99469.90;;;9.65;60.02
35307;BME280;21420;52.196;21.416;2023-04-15T01:39:20;99464.71;;;9.64;60.00
35307;BME280;21420;52.196;21.416;2023-04-15T01:41:47;99472.42;;;9.63;60.11
35307;BME280;21420;52.196;21.416;2023-04-15T01:44:14;99471.15;;;9.62;60.17
35307;BME280;21420;52.196;21.416;2023-04-15T01:46:41;99471.63;;;9.62;60.27
35307;BME280;21420;52.196;21.416;2023-04-15T01:49:08;99472.55;;;9.61;60.25
35307;BME280;21420;52.196;21.416;2023-04-15T01:51:34;99474.20;;;9.58;60.35
35307;BME280;21420;52.196;21.416;2023-04-15T01:54:01;99468.76;;;9.56;60.37
35307;BME280;21420;52.196;21.416;2023-04-15T01:56:28;99470.19;;;9.55;60.47
35307;BME280;21420;52.196;21.416;2023-04-15T01:58:55;99468.58;;;9.53;60.54
35307;BME280;21420;52.196;21.416;2023-04-15T02:01:22;99469.27;;;9.53;60.59
35307;BME280;21420;52.196;21.416;2023-04-15T02:03:49;99467.95;;;9.53;60.57
35307;BME280;21420;52.196;21.416;2023-04-15T02:06:16;99465.34;;;9.51;60.61
35307;BME280;21420;52.196;21.416;2023-04-15T02:08:43;99468.30;;;9.51;60.75
35307;BME280;21420;52.196;21.416;2023-04-15T02:11:10;99467.46;;;9.49;60.68
35307;BME280;21420;52.196;21.416;2023-04-15T02:13:37;99465.76;;;9.49;60.82
35307;BME280;21420;52.196;21.416;2023-04-15T02:19:29;99466.45;;;9.46;60.79
35307;BME280;21420;52.196;21.416;2023-04-15T02:21:56;99464.63;;;9.43;60.95
35307;BME280;21420;52.196;21.416;2023-04-15T02:24:23;99467.46;;;9.41;60.86
35307;BME280;21420;52.196;21.416;2023-04-15T02:26:49;99466.14;;;9.37;60.90
35307;BME280;21420;52.196;21.416;2023-04-15T02:29:16;99466.58;;;9.36;61.01
35307;BME280;21420;52.196;21.416;2023-04-15T02:31:42;99467.55;;;9.35;61.05
35307;BME280;21420;52.196;21.416;2023-04-15T02:34:10;99475.79;;;9.33;61.20
35307;BME280;21420;52.196;21.416;2023-04-15T02:36:43;99472.50;;;9.30;61.11
35307;BME280;21420;52.196;21.416;2023-04-15T02:39:10;99469.83;;;9.26;61.09
35307;BME280;21420;52.196;21.416;2023-04-15T02:41:38;99472.50;;;9.22;61.29
35307;BME280;21420;52.196;21.416;2023-04-15T02:44:04;99470.08;;;9.19;61.29
35307;BME280;21420;52.196;21.416;2023-04-15T02:46:32;99471.65;;;9.13;61.30
35307;BME280;21420;52.196;21.416;2023-04-15T02:48:59;99470.92;;;9.09;61.44
35307;BME280;21420;52.196;21.416;2023-04-15T02:51:29;99467.13;;;9.05;61.53
35307;BME280;21420;52.196;21.416;2023-04-15T02:53:56;99467.27;;;9.04;61.68
35307;BME280;21420;52.196;21.416;2023-04-15T02:56:23;99470.31;;;9.05;61.77
35307;BME280;21420;52.196;21.416;2023-04-15T02:58:50;99472.23;;;9.06;61.74
35307;BME280;21420;52.196;21.416;2023-04-15T03:01:17;99467.98;;;9.04;61.86
35307;BME280;21420;52.196;21.416;2023-04-15T03:03:43;99467.30;;;9.05;62.01
35307;BME280;21420;52.196;21.416;2023-04-15T03:06:10;99465.30;;;9.07;62.08
35307;BME280;21420;52.196;21.416;2023-04-15T03:08:37;99462.91;;;9.08;62.09
35307;BME280;21420;52.196;21.416;2023-04-15T03:11:04;99469.58;;;9.09;62.18
35307;BME280;21420;52.196;21.416;2023-04-15T03:13:31;99474.30;;;9.10;62.17
35307;BME280;21420;52.196;21.416;2023-04-15T03:15:59;99471.23;;;9.12;62.22
35307;BME280;21420;52.196;21.416;2023-04-15T03:18:26;99473.22;;;9.13;62.35
35307;BME280;21420;52.196;21.416;2023-04-15T03:20:54;99473.34;;;9.14;62.31
35307;BME280;21420;52.196;21.416;2023-04-15T03:23:21;99474.70;;;9.16;62.31
35307;BME280;21420;52.196;21.416;2023-04-15T03:25:48;99469.50;;;9.17;62.34
35307;BME280;21420;52.196;21.416;2023-04-15T03:28:15;99470.99;;;9.17;62.48
35307;BME280;21420;52.196;21.416;2023-04-15T03:30:41;99470.88;;;9.19;62.60
35307;BME280;21420;52.196;21.416;2023-04-15T03:33:08;99472.73;;;9.21;62.40
35307;BME280;21420;52.196;21.416;2023-04-15T03:35:37;99475.98;;;9.21;62.52
35307;BME280;21420;52.196;21.416;2023-04-15T03:38:04;99474.38;;;9.21;62.57
35307;BME280;21420;52.196;21.416;2023-04-15T03:40:31;99475.61;;;9.22;62.62
35307;BME280;21420;52.196;21.416;2023-04-15T03:42:57;99473.79;;;9.20;62.55
35307;BME280;21420;52.196;21.416;2023-04-15T03:45:24;99475.37;;;9.18;62.60
35307;BME280;21420;52.196;21.416;2023-04-15T03:47:50;99475.02;;;9.17;62.71
35307;BME280;21420;52.196;21.416;2023-04-15T03:50:17;99479.18;;;9.17;62.82
35307;BME280;21420;52.196;21.416;2023-04-15T03:52:44;99474.45;;;9.19;62.91
35307;BME280;21420;52.196;21.416;2023-04-15T03:55:11;99474.60;;;9.19;62.85
35307;BME280;21420;52.196;21.416;2023-04-15T03:57:38;99479.75;;;9.18;62.85
35307;BME280;21420;52.196;21.416;2023-04-15T04:00:06;99484.23;;;9.17;62.82
35307;BME280;21420;52.196;21.416;2023-04-15T04:02:37;99487.80;;;9.13;62.83
35307;BME280;21420;52.196;21.416;2023-04-15T04:05:04;99485.50;;;9.11;62.92
35307;BME280;21420;52.196;21.416;2023-04-15T04:07:31;99484.70;;;9.11;62.90
35307;BME280;21420;52.196;21.416;2023-04-15T04:09:57;99485.27;;;9.12;62.88
35307;BME280;21420;52.196;21.416;2023-04-15T04:12:24;99481.66;;;9.11;63.12
35307;BME280;21420;52.196;21.416;2023-04-15T04:14:50;99479.14;;;9.10;63.05
35307;BME280;21420;52.196;21.416;2023-04-15T04:17:17;99485.36;;;9.09;63.21
35307;BME280;21420;52.196;21.416;2023-04-15T04:19:44;99489.39;;;9.09;63.19
35307;BME280;21420;52.196;21.416;2023-04-15T04:22:10;99491.79;;;9.08;63.25
35307;BME280;21420;52.196;21.416;2023-04-15T04:24:37;99487.95;;;9.07;63.20
35307;BME280;21420;52.196;21.416;2023-04-15T04:27:04;99486.92;;;9.07;63.29
35307;BME280;21420;52.196;21.416;2023-04-15T04:29:30;99488.79;;;9.07;63.34
35307;BME280;21420;52.196;21.416;2023-04-15T04:31:57;99490.06;;;9.05;63.37
35307;BME280;21420;52.196;21.416;2023-04-15T04:34:23;99479.48;;;9.03;63.42
35307;BME280;21420;52.196;21.416;2023-04-15T04:36:50;99487.66;;;9.05;63.57
35307;BME280;21420;52.196;21.416;2023-04-15T04:39:17;99487.88;;;9.07;63.65
35307;BME280;21420;52.196;21.416;2023-04-15T04:41:44;99483.39;;;9.09;63.63
35307;BME280;21420;52.196;21.416;2023-04-15T04:44:10;99485.73;;;9.09;63.51
35307;BME280;21420;52.196;21.416;2023-04-15T04:46:37;99488.90;;;9.08;63.56
35307;BME280;21420;52.196;21.416;2023-04-15T04:49:04;99486.18;;;9.08;63.77
35307;BME280;21420;52.196;21.416;2023-04-15T04:51:31;99487.31;;;9.10;63.70
35307;BME280;21420;52.196;21.416;2023-04-15T04:53:57;99477.63;;;9.09;63.86
35307;BME280;21420;52.196;21.416;2023-04-15T04:56:25;99482.09;;;9.10;63.83
35307;BME280;21420;52.196;21.416;2023-04-15T04:58:51;99488.34;;;9.08;63.68
35307;BME280;21420;52.196;21.416;2023-04-15T05:01:18;99484.08;;;9.08;63.88
35307;BME280;21420;52.196;21.416;2023-04-15T05:03:45;99486.14;;;9.09;63.84
35307;BME280;21420;52.196;21.416;2023-04-15T05:06:12;99486.73;;;9.11;63.99
35307;BME280;21420;52.196;21.416;2023-04-15T05:08:38;99486.29;;;9.12;64.03
35307;BME280;21420;52.196;21.416;2023-04-15T05:11:06;99488.47;;;9.14;63.99
35307;BME280;21420;52.196;21.416;2023-04-15T05:13:33;99487.33;;;9.15;64.03
35307;BME280;21420;52.196;21.416;2023-04-15T05:15:59;99487.09;;;9.16;64.05
35307;BME280;21420;52.196;21.416;2023-04-15T05:18:26;99490.02;;;9.16;64.08
35307;BME280;21420;52.196;21.416;2023-04-15T05:20:53;99490.49;;;9.17;64.09
35307;BME280;21420;52.196;21.416;2023-04-15T05:23:20;99493.73;;;9.18;64.12
35307;BME280;21420;52.196;21.416;2023-04-15T05:25:46;99490.42;;;9.18;64.17
35307;BME280;21420;52.196;21.416;2023-04-15T05:28:13;99490.47;;;9.17;64.12
35307;BME280;21420;52.196;21.416;2023-04-15T05:30:40;99484.29;;;9.16;64.21
35307;BME280;21420;52.196;21.416;2023-04-15T05:33:07;99492.33;;;9.16;64.22
35307;BME280;21420;52.196;21.416;2023-04-15T05:35:34;99491.06;;;9.13;64.21
35307;BME280;21420;52.196;21.416;2023-04-15T05:38:01;99492.40;;;9.12;64.29
35307;BME280;21420;52.196;21.416;2023-04-15T05:40:29;99492.48;;;9.13;64.41
35307;BME280;21420;52.196;21.416;2023-04-15T05:42:56;99493.73;;;9.13;64.45
35307;BME280;21420;52.196;21.416;2023-04-15T05:45:22;99495.67;;;9.12;64.39
35307;BME280;21420;52.196;21.416;2023-04-15T05:47:49;99496.15;;;9.14;64.55
35307;BME280;21420;52.196;21.416;2023-04-15T05:50:16;99495.32;;;9.14;64.52
35307;BME280;21420;52.196;21.416;2023-04-15T05:52:42;99493.11;;;9.16;64.62
35307;BME280;21420;52.196;21.416;2023-04-15T05:55:09;99493.42;;;9.16;64.56
35307;BME280;21420;52.196;21.416;2023-04-15T05:57:36;99497.41;;;9.16;64.63
35307;BME280;21420;52.196;21.416;2023-04-15T06:00:04;99496.15;;;9.16;64.66
35307;BME280;21420;52.196;21.416;2023-04-15T06:02:34;99494.23;;;9.17;64.77
35307;BME280;21420;52.196;21.416;2023-04-15T06:05:02;99488.10;;;9.18;64.76
35307;BME280;21420;52.196;21.416;2023-04-15T06:07:29;99492.98;;;9.20;64.67
35307;BME280;21420;52.196;21.416;2023-04-15T06:09:56;99496.38;;;9.18;64.69
35307;BME280;21420;52.196;21.416;2023-04-15T06:12:22;99499.75;;;9.16;64.80
35307;BME280;21420;52.196;21.416;2023-04-15T06:14:49;99498.50;;;9.14;64.70
35307;BME280;21420;52.196;21.416;2023-04-15T06:17:16;99506.30;;;9.14;64.71
35307;BME280;21420;52.196;21.416;2023-04-15T06:19:44;99509.36;;;9.14;64.92
35307;BME280;21420;52.196;21.416;2023-04-15T06:22:11;99507.31;;;9.13;64.92
35307;BME280;21420;52.196;21.416;2023-04-15T06:24:37;99512.16;;;9.13;64.85
35307;BME280;21420;52.196;21.416;2023-04-15T06:27:04;99510.11;;;9.13;64.94
35307;BME280;21420;52.196;21.416;2023-04-15T06:29:30;99512.63;;;9.11;64.89
35307;BME280;21420;52.196;21.416;2023-04-15T06:31:57;99513.00;;;9.08;64.98
35307;BME280;21420;52.196;21.416;2023-04-15T06:34:24;99513.33;;;9.08;65.05
35307;BME280;21420;52.196;21.416;2023-04-15T06:36:51;99510.47;;;9.09;64.99
35307;BME280;21420;52.196;21.416;2023-04-15T06:39:17;99516.55;;;9.09;65.02
35307;BME280;21420;52.196;21.416;2023-04-15T06:41:44;99521.34;;;9.07;64.96
35307;BME280;21420;52.196;21.416;2023-04-15T06:44:11;99523.53;;;9.04;65.09
35307;BME280;21420;52.196;21.416;2023-04-15T06:46:38;99528.64;;;9.04;65.18
35307;BME280;21420;52.196;21.416;2023-04-15T06:49:04;99521.48;;;9.04;65.21
35307;BME280;21420;52.196;21.416;2023-04-15T06:51:31;99518.71;;;9.06;65.34
35307;BME280;21420;52.196;21.416;2023-04-15T06:53:58;99517.15;;;9.08;65.33
35307;BME280;21420;52.196;21.416;2023-04-15T06:56:24;99521.88;;;9.09;65.30
35307;BME280;21420;52.196;21.416;2023-04-15T06:58:51;99527.42;;;9.12;65.25
35307;BME280;21420;52.196;21.416;2023-04-15T07:01:18;99527.33;;;9.14;65.24
35307;BME280;21420;52.196;21.416;2023-04-15T07:03:45;99531.40;;;9.15;65.24
35307;BME280;21420;52.196;21.416;2023-04-15T07:06:12;99529.02;;;9.19;65.33
35307;BME280;21420;52.196;21.416;2023-04-15T07:08:38;99535.40;;;9.21;65.48
35307;BME280;21420;52.196;21.416;2023-04-15T07:11:06;99534.98;;;9.23;65.35
35307;BME280;21420;52.196;21.416;2023-04-15T07:13:33;99538.48;;;9.25;65.34
35307;BME280;21420;52.196;21.416;2023-04-15T07:15:59;99537.64;;;9.26;65.37
35307;BME280;21420;52.196;21.416;2023-04-15T07:18:26;99536.94;;;9.26;65.49
35307;BME280;21420;52.196;21.416;2023-04-15T07:20:53;99538.25;;;9.28;65.43
35307;BME280;21420;52.196;21.416;2023-04-15T07:23:20;99538.55;;;9.31;65.50
35307;BME280;21420;52.196;21.416;2023-04-15T07:25:47;99538.60;;;9.32;65.55
35307;BME280;21420;52.196;21.416;2023-04-15T07:28:16;99537.89;;;9.32;65.57
35307;BME280;21420;52.196;21.416;2023-04-15T07:30:43;99539.21;;;9.35;65.68
35307;BME280;21420;52.196;21.416;2023-04-15T07:33:10;99538.75;;;9.41;65.69
35307;BME280;21420;52.196;21.416;2023-04-15T07:35:37;99534.74;;;9.43;65.63
35307;BME280;21420;52.196;21.416;2023-04-15T07:38:04;99538.84;;;9.44;65.70
35307;BME280;21420;52.196;21.416;2023-04-15T07:40:30;99541.84;;;9.45;65.63
35307;BME280;21420;52.196;21.416;2023-04-15T07:42:57;99537.50;;;9.47;65.76
35307;BME280;21420;52.196;21.416;2023-04-15T07:45:24;99538.29;;;9.49;65.72
35307;BME280;21420;52.196;21.416;2023-04-15T07:47:50;99537.10;;;9.51;65.74
35307;BME280;21420;52.196;21.416;2023-04-15T07:50:17;99535.95;;;9.55;65.91
35307;BME280;21420;52.196;21.416;2023-04-15T07:52:45;99535.02;;;9.58;65.75
35307;BME280;21420;52.196;21.416;2023-04-15T07:55:11;99539.90;;;9.63;65.82
35307;BME280;21420;52.196;21.416;2023-04-15T07:57:38;99535.63;;;9.64;65.82
35307;BME280;21420;52.196;21.416;2023-04-15T08:00:05;99531.86;;;9.66;65.91
35307;BME280;21420;52.196;21.416;2023-04-15T08:02:39;99539.67;;;9.69;65.84
35307;BME280;21420;52.196;21.416;2023-04-15T08:05:08;99540.11;;;9.74;65.80
35307;BME280;21420;52.196;21.416;2023-04-15T08:07:36;99537.03;;;9.75;65.78
35307;BME280;21420;52.196;21.416;2023-04-15T08:10:04;99539.69;;;9.79;65.92
35307;BME280;21420;52.196;21.416;2023-04-15T08:12:31;99540.15;;;9.81;65.87
35307;BME280;21420;52.196;21.416;2023-04-15T08:14:58;99541.79;;;9.81;65.81
35307;BME280;21420;52.196;21.416;2023-04-15T08:17:24;99539.74;;;9.81;65.90
35307;BME280;21420;52.196;21.416;2023-04-15T08:19:51;99543.55;;;9.84;65.85
35307;BME280;21420;52.196;21.416;2023-04-15T08:22:19;99539.17;;;9.86;65.85
35307;BME280;21420;52.196;21.416;2023-04-15T08:24:47;99540.73;;;9.95;65.97
35307;BME280;21420;52.196;21.416;2023-04-15T08:27:14;99539.88;;;10.04;65.97
35307;BME280;21420;52.196;21.416;2023-04-15T08:29:40;99542.72;;;10.08;65.83
35307;BME280;21420;52.196;21.416;2023-04-15T08:32:07;99545.96;;;10.10;65.83
35307;BME280;21420;52.196;21.416;2023-04-15T08:34:35;99541.16;;;10.15;65.99
35307;BME280;21420;52.196;21.416;2023-04-15T08:37:01;99539.80;;;10.17;65.86
35307;BME280;21420;52.196;21.416;2023-04-15T08:39:28;99546.84;;;10.20;65.97
35307;BME280;21420;52.196;21.416;2023-04-15T08:42:07;99547.78;;;10.24;65.93
35307;BME280;21420;52.196;21.416;2023-04-15T08:44:37;99552.39;;;10.27;65.81
35307;BME280;21420;52.196;21.416;2023-04-15T08:47:07;99550.46;;;10.28;65.98
35307;BME280;21420;52.196;21.416;2023-04-15T08:49:39;99550.69;;;10.28;65.88
35307;BME280;21420;52.196;21.416;2023-04-15T08:52:07;99551.00;;;10.25;65.87
35307;BME280;21420;52.196;21.416;2023-04-15T08:54:37;99552.89;;;10.22;65.91
35307;BME280;21420;52.196;21.416;2023-04-15T08:57:04;99547.76;;;10.23;65.84
35307;BME280;21420;52.196;21.416;2023-04-15T08:59:32;99543.46;;;10.26;65.98
35307;BME280;21420;52.196;21.416;2023-04-15T09:01:58;99543.93;;;10.29;65.98
35307;BME280;21420;52.196;21.416;2023-04-15T09:04:27;99546.25;;;10.34;65.93
35307;BME280;21420;52.196;21.416;2023-04-15T09:06:53;99548.79;;;10.38;65.88
35307;BME280;21420;52.196;21.416;2023-04-15T09:09:20;99550.90;;;10.38;65.86
35307;BME280;21420;52.196;21.416;2023-04-15T09:11:48;99548.80;;;10.39;65.91
35307;BME280;21420;52.196;21.416;2023-04-15T09:14:15;99562.06;;;10.41;65.92
35307;BME280;21420;52.196;21.416;2023-04-15T09:16:55;99556.68;;;10.38;65.91
35307;BME280;21420;52.196;21.416;2023-04-15T09:19:23;99556.25;;;10.37;65.93
35307;BME280;21420;52.196;21.416;2023-04-15T09:21:53;99552.89;;;10.39;65.89
35307;BME280;21420;52.196;21.416;2023-04-15T09:24:24;99559.23;;;10.37;65.87
35307;BME280;21420;52.196;21.416;2023-04-15T09:26:53;99562.59;;;10.39;65.95
35307;BME280;21420;52.196;21.416;2023-04-15T09:29:23;99558.23;;;10.47;66.08
35307;BME280;21420;52.196;21.416;2023-04-15T09:31:50;99560.83;;;10.51;65.96
35307;BME280;21420;52.196;21.416;2023-04-15T09:34:17;99558.88;;;10.52;66.11
35307;BME280;21420;52.196;21.416;2023-04-15T09:39:16;99558.30;;;10.57;66.10
35307;BME280;21420;52.196;21.416;2023-04-15T09:41:43;99559.76;;;10.56;65.98
35307;BME280;21420;52.196;21.416;2023-04-15T09:44:23;99559.64;;;10.51;65.90
35307;BME280;21420;52.196;21.416;2023-04-15T09:46:50;99563.25;;;10.52;66.09
35307;BME280;21420;52.196;21.416;2023-04-15T09:49:17;99564.79;;;10.60;66.38
35307;BME280;21420;52.196;21.416;2023-04-15T09:51:43;99566.88;;;10.66;66.29
35307;BME280;21420;52.196;21.416;2023-04-15T09:54:36;99569.06;;;10.63;65.99
35307;BME280;21420;52.196;21.416;2023-04-15T09:57:08;99568.33;;;10.65;66.16
35307;BME280;21420;52.196;21.416;2023-04-15T09:59:35;99567.36;;;10.70;66.13
35307;BME280;21420;52.196;21.416;2023-04-15T10:02:06;99574.91;;;10.72;66.04
35307;BME280;21420;52.196;21.416;2023-04-15T10:04:35;99571.50;;;10.77;66.15
35307;BME280;21420;52.196;21.416;2023-04-15T10:07:04;99572.25;;;10.82;66.16
35307;BME280;21420;52.196;21.416;2023-04-15T10:09:32;99574.75;;;10.86;66.14
35307;BME280;21420;52.196;21.416;2023-04-15T10:12:01;99574.09;;;10.88;66.01
35307;BME280;21420;52.196;21.416;2023-04-15T10:14:34;99574.94;;;10.94;66.03
35307;BME280;21420;52.196;21.416;2023-04-15T10:17:04;99577.52;;;10.94;65.92
35307;BME280;21420;52.196;21.416;2023-04-15T10:19:35;99571.31;;;11.00;66.21
35307;BME280;21420;52.196;21.416;2023-04-15T10:22:03;99574.39;;;11.05;66.08
35307;BME280;21420;52.196;21.416;2023-04-15T10:24:31;99577.23;;;11.02;66.18
35307;BME280;21420;52.196;21.416;2023-04-15T10:26:59;99579.80;;;11.02;66.10
35307;BME280;21420;52.196;21.416;2023-04-15T10:29:27;99578.46;;;11.09;66.10
35307;BME280;21420;52.196;21.416;2023-04-15T10:31:58;99575.59;;;11.17;66.24
35307;BME280;21420;52.196;21.416;2023-04-15T10:34:26;99573.62;;;11.28;66.21
35307;BME280;21420;52.196;21.416;2023-04-15T10:36:55;99573.81;;;11.30;66.08
35307;BME280;21420;52.196;21.416;2023-04-15T10:42:10;99573.61;;;11.35;66.01
35307;BME280;21420;52.196;21.416;2023-04-15T10:44:38;99574.34;;;11.36;66.04
35307;BME280;21420;52.196;21.416;2023-04-15T10:47:09;99573.48;;;11.33;66.00
35307;BME280;21420;52.196;21.416;2023-04-15T10:49:57;99577.86;;;11.29;65.92
35307;BME280;21420;52.196;21.416;2023-04-15T10:52:25;99574.65;;;11.28;65.92
35307;BME280;21420;52.196;21.416;2023-04-15T10:55:03;99573.95;;;11.29;65.98
35307;BME280;21420;52.196;21.416;2023-04-15T10:57:38;99580.10;;;11.23;65.82
35307;BME280;21420;52.196;21.416;2023-04-15T11:00:15;99579.57;;;11.13;65.71
35307;BME280;21420;52.196;21.416;2023-04-15T11:02:46;99578.77;;;11.05;65.79
35307;BME280;21420;52.196;21.416;2023-04-15T11:05:15;99577.69;;;11.02;65.72
35307;BME280;21420;52.196;21.416;2023-04-15T11:12:39;99583.48;;;10.95;66.00
35307;BME280;21420;52.196;21.416;2023-04-15T11:15:26;99577.86;;;10.89;65.72
35307;BME280;21420;52.196;21.416;2023-04-15T11:17:55;99580.33;;;10.83;65.91
35307;BME280;21420;52.196;21.416;2023-04-15T11:20:22;99584.88;;;10.80;65.85
35307;BME280;21420;52.196;21.416;2023-04-15T11:22:50;99580.84;;;10.78;65.97
35307;BME280;21420;52.196;21.416;2023-04-15T11:25:34;99584.50;;;10.77;66.07
35307;BME280;21420;52.196;21.416;2023-04-15T11:28:04;99590.38;;;10.77;66.05
35307;BME280;21420;52.196;21.416;2023-04-15T11:30:32;99593.29;;;10.82;66.11
35307;BME280;21420;52.196;21.416;2023-04-15T11:33:03;99595.30;;;10.88;66.21
35307;BME280;21420;52.196;21.416;2023-04-15T11:35:30;99597.24;;;10.94;66.26
35307;BME280;21420;52.196;21.416;2023-04-15T11:37:56;99599.09;;;11.00;66.21
35307;BME280;21420;52.196;21.416;2023-04-15T11:40:26;99603.59;;;11.05;66.19
35307;BME280;21420;52.196;21.416;2023-04-15T11:43:16;99603.73;;;11.05;66.17
35307;BME280;21420;52.196;21.416;2023-04-15T11:45:54;99606.48;;;11.01;66.15
35307;BME280;21420;52.196;21.416;2023-04-15T11:48:24;99612.55;;;10.97;66.01
35307;BME280;21420;52.196;21.416;2023-04-15T11:50:55;99614.31;;;10.95;66.17
35307;BME280;21420;52.196;21.416;2023-04-15T11:53:22;99619.36;;;10.90;66.11
35307;BME280;21420;52.196;21.416;2023-04-15T11:55:51;99624.27;;;10.82;65.94
35307;BME280;21420;52.196;21.416;2023-04-15T11:58:20;99623.33;;;10.68;65.69
35307;BME280;21420;52.196;21.416;2023-04-15T12:00:56;99625.48;;;10.51;65.70
35307;BME280;21420;52.196;21.416;2023-04-15T12:03:26;99631.19;;;10.32;65.61
35307;BME280;21420;52.196;21.416;2023-04-15T12:06:05;99637.27;;;10.00;65.33
35307;BME280;21420;52.196;21.416;2023-04-15T12:14:18;99655.56;;;9.00;65.74
35307;BME280;21420;52.196;21.416;2023-04-15T12:16:50;99653.64;;;8.88;65.93
35307;BME280;21420;52.196;21.416;2023-04-15T12:19:41;99657.89;;;8.80;66.18
35307;BME280;21420;52.196;21.416;2023-04-15T12:22:10;99661.34;;;8.73;66.46
35307;BME280;21420;52.196;21.416;2023-04-15T12:24:38;99667.60;;;8.71;66.61
35307;BME280;21420;52.196;21.416;2023-04-15T12:27:07;99667.84;;;8.71;66.81
35307;BME280;21420;52.196;21.416;2023-04-15T12:29:36;99668.25;;;8.77;67.05
35307;BME280;21420;52.196;21.416;2023-04-15T12:32:05;99670.02;;;8.81;67.09
35307;BME280;21420;52.196;21.416;2023-04-15T12:34:34;99672.61;;;8.82;67.15
35307;BME280;21420;52.196;21.416;2023-04-15T12:37:03;99672.34;;;8.81;67.22
35307;BME280;21420;52.196;21.416;2023-04-15T12:39:34;99675.80;;;8.81;67.26
35307;BME280;21420;52.196;21.416;2023-04-15T12:42:02;99672.16;;;8.82;67.35
35307;BME280;21420;52.196;21.416;2023-04-15T12:44:29;99675.17;;;8.83;67.42
35307;BME280;21420;52.196;21.416;2023-04-15T12:46:57;99675.54;;;8.86;67.53
35307;BME280;21420;52.196;21.416;2023-04-15T12:49:24;99674.31;;;8.89;67.61
35307;BME280;21420;52.196;21.416;2023-04-15T12:51:54;99671.05;;;8.91;67.68
35307;BME280;21420;52.196;21.416;2023-04-15T12:54:21;99671.97;;;8.91;67.64
35307;BME280;21420;52.196;21.416;2023-04-15T12:56:49;99673.35;;;8.95;67.90
35307;BME280;21420;52.196;21.416;2023-04-15T12:59:16;99673.27;;;8.98;67.76
35307;BME280;21420;52.196;21.416;2023-04-15T13:01:47;99672.23;;;9.00;67.74
35307;BME280;21420;52.196;21.416;2023-04-15T13:04:15;99677.49;;;9.08;67.96
35307;BME280;21420;52.196;21.416;2023-04-15T13:06:42;99680.59;;;9.17;68.04
35307;BME280;21420;52.196;21.416;2023-04-15T13:09:09;99679.85;;;9.24;68.13
35307;BME280;21420;52.196;21.416;2023-04-15T13:11:36;99675.85;;;9.31;68.17
35307;BME280;21420;52.196;21.416;2023-04-15T13:14:04;99685.73;;;9.40;68.14
35307;BME280;21420;52.196;21.416;2023-04-15T13:16:32;99688.58;;;9.49;68.20
35307;BME280;21420;52.196;21.416;2023-04-15T13:19:00;99683.70;;;9.62;68.28
35307;BME280;21420;52.196;21.416;2023-04-15T13:21:27;99683.88;;;9.79;68.43